createdAt,value
2022-09-28T00:02:34.028Z,7.6
2022-09-28T00:05:34.005Z,7.6
2022-09-28T00:08:34.019Z,7.5
2022-09-28T00:11:34.011Z,7.5
2022-09-28T00:14:34.017Z,7.5
2022-09-28T00:17:34.030Z,7.5
2022-09-28T00:20:34.041Z,7.5
2022-09-28T00:23:34.104Z,7.5
2022-09-28T00:26:34.060Z,7.5
2022-09-28T00:29:34.079Z,7.5
2022-09-28T00:32:34.085Z,7.6
2022-09-28T00:35:34.091Z,7.6
2022-09-28T00:38:34.132Z,7.6
2022-09-28T00:41:34.143Z,7.5
2022-09-28T00:44:34.138Z,7.4
2022-09-28T00:47:34.145Z,7.4
2022-09-28T00:50:34.156Z,7.3
2022-09-28T00:53:34.187Z,7.2
2022-09-28T00:56:34.176Z,7.1
2022-09-28T00:59:34.215Z,6.9
2022-09-28T01:02:34.252Z,6.8
2022-09-28T01:05:34.220Z,6.7
2022-09-28T01:08:34.240Z,6.6
2022-09-28T01:11:34.237Z,6.5
2022-09-28T01:14:34.260Z,6.5
2022-09-28T01:17:34.289Z,6.5
2022-09-28T01:20:34.280Z,6.5
2022-09-28T01:23:34.308Z,6.4
2022-09-28T01:26:34.298Z,6.3
2022-09-28T01:29:34.317Z,6.2
2022-09-28T01:32:34.330Z,6.1
2022-09-28T01:35:34.376Z,6
2022-09-28T01:38:34.395Z,5.8
2022-09-28T01:41:34.368Z,5.8
2022-09-28T01:44:34.379Z,5.8
2022-09-28T01:47:34.391Z,5.6
2022-09-28T01:50:34.406Z,5.5
2022-09-28T01:53:34.476Z,5.4
2022-09-28T01:56:34.435Z,5.5
2022-09-28T01:59:34.448Z,5.4
2022-09-28T02:02:34.494Z,5.4
2022-09-28T02:05:34.463Z,5.4
2022-09-28T02:08:34.502Z,5.3
2022-09-28T02:11:34.561Z,5.3
2022-09-28T02:14:34.509Z,5.3
2022-09-28T02:17:34.521Z,5.3
2022-09-28T02:20:34.540Z,5.1
2022-09-28T02:23:34.567Z,5
2022-09-28T02:26:34.566Z,4.9
2022-09-28T02:29:34.602Z,4.8
2022-09-28T02:32:34.591Z,4.7
2022-09-28T02:35:34.612Z,4.7
2022-09-28T02:38:34.647Z,4.7
2022-09-28T02:41:34.638Z,4.7
2022-09-28T02:44:34.650Z,4.6
2022-09-28T02:47:34.693Z,4.4
2022-09-28T02:50:34.681Z,4.3
2022-09-28T02:53:34.715Z,4.1
2022-09-28T02:56:34.707Z,4
2022-09-28T02:59:34.725Z,3.9
2022-09-28T03:02:34.738Z,3.8
2022-09-28T03:05:34.776Z,3.9
2022-09-28T03:08:34.780Z,4.1
2022-09-28T03:11:34.767Z,4.3
2022-09-28T03:14:34.796Z,4.5
2022-09-28T03:17:34.799Z,4.8
2022-09-28T03:20:34.820Z,5
2022-09-28T03:23:34.875Z,5.2
2022-09-28T03:26:34.850Z,5.4
2022-09-28T03:29:34.864Z,5.6
2022-09-28T03:32:34.879Z,5.7
2022-09-28T03:35:34.898Z,5.8
2022-09-28T03:38:34.940Z,5.9
2022-09-28T03:41:34.958Z,6
2022-09-28T03:44:34.955Z,6.1
2022-09-28T03:47:34.966Z,6.2
2022-09-28T03:50:34.983Z,6.2
2022-09-28T03:53:35.019Z,6.3
2022-09-28T03:56:35.024Z,6.3
2022-09-28T03:59:35.061Z,6.3
2022-09-28T04:02:35.126Z,6.3
2022-09-28T04:05:35.071Z,6.4
2022-09-28T04:08:35.099Z,6.4
2022-09-28T04:11:53.111Z,6.4
2022-09-28T04:14:35.116Z,6.5
2022-09-28T04:17:39.290Z,6.5
2022-09-28T04:20:35.336Z,6.5
2022-09-28T04:23:35.367Z,6.5
2022-09-28T04:26:35.444Z,6.5
2022-09-28T04:29:35.372Z,6.5
2022-09-28T04:32:35.234Z,6.5
2022-09-28T04:35:35.480Z,6.5
2022-09-28T04:38:52.187Z,6.5
2022-09-28T04:41:35.391Z,6.5
2022-09-28T04:44:35.480Z,6.5
2022-09-28T04:47:35.316Z,6.5
2022-09-28T04:50:35.521Z,6.6
2022-09-28T04:53:35.397Z,6.6
2022-09-28T04:56:35.368Z,6.6
2022-09-28T04:59:35.381Z,6.7
2022-09-28T05:02:35.533Z,6.7
2022-09-28T05:05:35.430Z,6.7
2022-09-28T05:08:35.465Z,6.8
2022-09-28T05:11:35.493Z,6.8
2022-09-28T05:14:35.521Z,6.8
2022-09-28T05:17:35.498Z,6.8
2022-09-28T05:20:35.519Z,6.8
2022-09-28T05:23:35.552Z,6.8
2022-09-28T05:26:35.550Z,6.9
2022-09-28T05:29:35.586Z,6.9
2022-09-28T05:32:35.576Z,6.9
2022-09-28T05:35:35.593Z,6.9
2022-09-28T05:38:35.622Z,6.9
2022-09-28T05:41:35.628Z,6.9
2022-09-28T05:44:35.631Z,6.9
2022-09-28T05:47:35.659Z,6.9
2022-09-28T05:50:35.651Z,7
2022-09-28T05:53:35.695Z,7
2022-09-28T05:56:35.679Z,7
2022-09-28T05:59:35.700Z,7.1
2022-09-28T06:02:35.743Z,7.1
2022-09-28T06:05:35.746Z,7
2022-09-28T06:08:35.759Z,7.1
2022-09-28T06:11:35.752Z,7.1
2022-09-28T06:14:35.787Z,7.1
2022-09-28T06:17:35.782Z,7.1
2022-09-28T06:20:35.797Z,7.1
2022-09-28T06:23:35.857Z,7.1
2022-09-28T06:26:35.830Z,7.1
2022-09-28T06:29:35.841Z,7.1
2022-09-28T06:32:35.854Z,7.1
2022-09-28T06:35:35.868Z,7.1
2022-09-28T06:38:35.924Z,7.2
2022-09-28T06:41:35.919Z,7.2
2022-09-28T06:44:35.904Z,7.2
2022-09-28T06:47:35.923Z,7.2
2022-09-28T06:50:35.938Z,7.3
2022-09-28T06:53:35.977Z,7.3
2022-09-28T06:56:35.966Z,7.3
2022-09-28T06:59:36.010Z,7.3
2022-09-28T07:02:36.031Z,7.4
2022-09-28T07:05:35.985Z,7.4
2022-09-28T07:08:36.021Z,7.4
2022-09-28T07:11:36.002Z,7.5
2022-09-28T07:14:47.218Z,7.5
2022-09-28T07:17:43.590Z,7.6
2022-09-28T07:20:47.374Z,7.6
2022-09-28T07:23:45.441Z,7.7
2022-09-28T07:26:36.040Z,7.7
2022-09-28T07:29:36.061Z,7.8
2022-09-28T07:32:36.061Z,7.9
2022-09-28T07:35:36.087Z,8
2022-09-28T07:38:36.098Z,8
2022-09-28T07:41:36.084Z,8.1
2022-09-28T07:44:36.092Z,8.1
2022-09-28T07:47:36.093Z,8.1
2022-09-28T07:50:36.098Z,8.1
2022-09-28T07:53:36.145Z,8.1
2022-09-28T07:56:36.112Z,8.2
2022-09-28T07:59:36.119Z,8.2
2022-09-28T08:02:36.210Z,8.2
2022-09-28T08:05:36.140Z,8.3
2022-09-28T08:08:36.174Z,8.4
2022-09-28T08:11:36.187Z,8.5
2022-09-28T08:14:36.165Z,8.6
2022-09-28T08:17:36.171Z,8.6
2022-09-28T08:20:36.180Z,8.7
2022-09-28T08:23:36.207Z,8.7
2022-09-28T08:26:36.197Z,8.7
2022-09-28T08:29:36.235Z,8.7
2022-09-28T08:32:36.210Z,8.8
2022-09-28T08:35:36.216Z,8.9
2022-09-28T08:38:36.241Z,9
2022-09-28T08:41:36.225Z,9
2022-09-28T08:44:36.264Z,9.1
2022-09-28T08:47:36.266Z,9
2022-09-28T08:50:36.262Z,9.1
2022-09-28T08:53:36.272Z,9
2022-09-28T08:56:36.266Z,9
2022-09-28T08:59:36.276Z,9.2
2022-09-28T09:02:36.372Z,9.1
2022-09-28T09:05:36.317Z,9.2
2022-09-28T09:08:36.316Z,9.1
2022-09-28T09:11:36.304Z,9
2022-09-28T09:14:36.314Z,9.1
2022-09-28T09:17:36.327Z,9.1
2022-09-28T09:20:36.338Z,9
2022-09-28T09:23:36.396Z,9.1
2022-09-28T09:26:36.347Z,9
2022-09-28T09:29:36.356Z,8.8
2022-09-28T09:32:36.356Z,9
2022-09-28T09:35:36.370Z,9
2022-09-28T09:38:36.410Z,9
2022-09-28T09:41:36.408Z,9
2022-09-28T09:44:36.385Z,9.2
2022-09-28T09:47:36.394Z,9.2
2022-09-28T09:50:36.411Z,9.3
2022-09-28T09:53:38.309Z,9.2
2022-09-28T09:56:36.430Z,9.2
2022-09-28T09:59:36.450Z,9
2022-09-28T10:02:36.501Z,8.8
2022-09-28T10:05:36.450Z,8.6
2022-09-28T10:08:36.478Z,8.6
2022-09-28T10:11:36.468Z,8.6
2022-09-28T10:14:36.475Z,8.6
2022-09-28T10:17:36.509Z,8.5
2022-09-28T10:20:36.481Z,8.5
2022-09-28T10:23:36.515Z,8.4
2022-09-28T10:26:36.503Z,8.4
2022-09-28T10:29:36.514Z,8.3
2022-09-28T10:32:36.522Z,8.3
2022-09-28T10:35:36.559Z,8.2
2022-09-28T10:38:36.561Z,8.1
2022-09-28T10:41:36.557Z,8
2022-09-28T10:44:36.563Z,8
2022-09-28T10:47:36.587Z,8.1
2022-09-28T10:50:36.586Z,8.1
2022-09-28T10:53:36.632Z,8.1
2022-09-28T10:56:36.590Z,8.3
2022-09-28T10:59:36.609Z,8.4
2022-09-28T11:02:36.824Z,8.4
2022-09-28T11:05:36.630Z,8.3
2022-09-28T11:08:36.649Z,8.5
2022-09-28T11:11:36.664Z,8.5
2022-09-28T11:14:41.250Z,8.5
2022-09-28T11:17:36.659Z,8.5
2022-09-28T11:20:36.663Z,8.7
2022-09-28T11:23:36.689Z,8.7
2022-09-28T11:26:36.688Z,8.8
2022-09-28T11:29:36.710Z,8.7
2022-09-28T11:32:36.704Z,8.7
2022-09-28T11:35:36.707Z,8.9
2022-09-28T11:38:36.732Z,8.7
2022-09-28T11:41:36.727Z,8.6
2022-09-28T11:44:36.741Z,8.6
2022-09-28T11:47:36.778Z,8.7
2022-09-28T11:50:36.759Z,8.7
2022-09-28T11:53:36.774Z,8.7
2022-09-28T11:56:36.779Z,8.5
2022-09-28T11:59:36.791Z,8.4
2022-09-28T12:02:36.905Z,8.4
2022-09-28T12:05:36.936Z,8.4
2022-09-28T12:08:36.829Z,8.3
2022-09-28T12:11:36.821Z,8.2
2022-09-28T12:14:36.831Z,8.2
2022-09-28T12:17:36.901Z,8.1
2022-09-28T12:20:36.847Z,8
2022-09-28T12:23:36.890Z,7.9
2022-09-28T12:26:37.861Z,8
2022-09-28T12:29:36.874Z,8.1
2022-09-28T12:32:36.880Z,8.1
2022-09-28T12:35:36.887Z,8.2
2022-09-28T12:38:36.909Z,8.1
2022-09-28T12:41:36.924Z,8.2
2022-09-28T12:44:36.911Z,8.2
2022-09-28T12:47:36.921Z,8.2
2022-09-28T12:50:38.957Z,8.3
2022-09-28T12:53:37.118Z,8.3
2022-09-28T12:56:36.943Z,8.4
2022-09-28T12:59:36.976Z,8.5
2022-09-28T13:02:37.096Z,8.5
2022-09-28T13:05:36.967Z,8.5
2022-09-28T13:08:36.991Z,8.5
2022-09-28T13:11:36.992Z,8.5
2022-09-28T13:14:36.998Z,8.6
2022-09-28T13:17:37.036Z,8.6
2022-09-28T13:20:37.011Z,8.7
2022-09-28T13:23:37.032Z,8.8
2022-09-28T13:26:37.030Z,8.7
2022-09-28T13:29:37.041Z,8.7
2022-09-28T13:32:37.048Z,8.8
2022-09-28T13:35:37.082Z,8.9
2022-09-28T13:38:37.084Z,8.9
2022-09-28T13:41:37.068Z,8.9
2022-09-28T13:44:37.089Z,8.9
2022-09-28T13:47:37.087Z,8.8
2022-09-28T13:50:37.099Z,8.8
2022-09-28T13:53:37.149Z,8.7
2022-09-28T13:56:37.116Z,8.8
2022-09-28T13:59:37.131Z,8.9
2022-09-28T14:02:37.190Z,8.8
2022-09-28T14:05:37.141Z,8.6
2022-09-28T14:08:37.164Z,8.7
2022-09-28T14:11:37.178Z,8.5
2022-09-28T14:14:37.167Z,8.4
2022-09-28T14:17:37.170Z,8.5
2022-09-28T14:20:37.174Z,8.6
2022-09-28T14:23:37.192Z,8.6
2022-09-28T14:26:37.192Z,8.7
2022-09-28T14:29:37.245Z,8.7
2022-09-28T14:32:37.208Z,8.7
2022-09-28T14:35:37.215Z,8.8
2022-09-28T14:38:37.369Z,8.7
2022-09-28T14:41:37.557Z,8.7
2022-09-28T14:44:37.248Z,8.8
2022-09-28T14:47:37.277Z,9
2022-09-28T14:50:37.262Z,9
2022-09-28T14:53:37.276Z,9
2022-09-28T14:56:37.276Z,9
2022-09-28T14:59:37.288Z,9.1
2022-09-28T15:02:37.280Z,9.1
2022-09-28T15:05:37.338Z,9.2
2022-09-28T15:08:37.304Z,9.1
2022-09-28T15:11:37.300Z,9.1
2022-09-28T15:14:37.306Z,9.1
2022-09-28T15:17:39.920Z,8.9
2022-09-28T15:20:37.309Z,8.7
2022-09-28T15:23:37.356Z,8.7
2022-09-28T15:26:37.325Z,8.6
2022-09-28T15:29:37.337Z,8.6
2022-09-28T15:32:37.337Z,8.6
2022-09-28T15:35:37.348Z,8.6
2022-09-28T15:38:37.360Z,8.6
2022-09-28T15:41:37.383Z,8.6
2022-09-28T15:44:37.356Z,8.6
2022-09-28T15:47:37.353Z,8.6
2022-09-28T15:50:37.367Z,8.5
2022-09-28T15:53:37.377Z,8.5
2022-09-28T15:56:37.367Z,8.4
2022-09-28T15:59:37.405Z,8.3
2022-09-28T16:02:37.451Z,8.3
2022-09-28T16:05:37.388Z,8.4
2022-09-28T16:08:37.399Z,8.4
2022-09-28T16:11:37.393Z,8.3
2022-09-28T16:14:37.404Z,8.3
2022-09-28T16:17:37.429Z,8.3
2022-09-28T16:20:37.408Z,8.2
2022-09-28T16:23:37.418Z,8.2
2022-09-28T16:26:37.417Z,8.2
2022-09-28T16:29:37.411Z,8.2
2022-09-28T16:32:37.408Z,8.2
2022-09-28T16:35:37.436Z,8.2
2022-09-28T16:38:37.438Z,8.2
2022-09-28T16:41:37.420Z,8.2
2022-09-28T16:44:37.414Z,8.2
2022-09-28T16:47:37.416Z,8.2
2022-09-28T16:50:37.415Z,8.1
2022-09-28T16:53:37.541Z,8.1
2022-09-28T16:56:37.438Z,8.1
2022-09-28T16:59:37.448Z,8.1
2022-09-28T17:02:46.542Z,8
2022-09-28T17:05:37.457Z,8
2022-09-28T17:08:37.460Z,8
2022-09-28T17:11:37.487Z,8
2022-09-28T17:14:37.472Z,8
2022-09-28T17:17:37.481Z,8
2022-09-28T17:20:37.485Z,8
2022-09-28T17:23:37.752Z,8.1
2022-09-28T17:26:37.502Z,8
2022-09-28T17:29:37.523Z,8
2022-09-28T17:32:37.507Z,8
2022-09-28T17:35:39.693Z,8
2022-09-28T17:38:37.536Z,8
2022-09-28T17:41:37.527Z,8
2022-09-28T17:44:37.543Z,8
2022-09-28T17:47:37.574Z,8
2022-09-28T17:50:37.560Z,8
2022-09-28T17:53:42.568Z,8
2022-09-28T17:56:37.575Z,8
2022-09-28T17:59:37.579Z,8
2022-09-28T18:02:37.606Z,8.1
2022-09-28T18:05:37.677Z,8
2022-09-28T18:08:37.609Z,8
2022-09-28T18:11:37.611Z,8.1
2022-09-28T18:14:37.620Z,8
2022-09-28T18:17:37.629Z,8.1
2022-09-28T18:20:37.631Z,8
2022-09-28T18:23:37.690Z,8
2022-09-28T18:26:37.644Z,8
2022-09-28T18:29:37.652Z,8
2022-09-28T18:32:37.659Z,8
2022-09-28T18:35:37.665Z,8
2022-09-28T18:38:37.713Z,8
2022-09-28T18:41:37.706Z,8
2022-09-28T18:44:37.688Z,7.9
2022-09-28T18:47:37.696Z,8
2022-09-28T18:50:37.708Z,7.9
2022-09-28T18:53:37.730Z,8
2022-09-28T18:56:37.722Z,7.9
2022-09-28T18:59:37.757Z,7.9
2022-09-28T19:02:37.928Z,8
2022-09-28T19:05:37.749Z,7.9
2022-09-28T19:08:37.768Z,7.9
2022-09-28T19:11:37.758Z,7.9
2022-09-28T19:14:37.756Z,7.9
2022-09-28T19:17:37.794Z,7.9
2022-09-28T19:20:37.775Z,7.9
2022-09-28T19:23:37.800Z,7.9
2022-09-28T19:26:37.798Z,7.9
2022-09-28T19:29:37.797Z,7.9
2022-09-28T19:32:37.808Z,7.8
2022-09-28T19:35:37.851Z,7.9
2022-09-28T19:38:37.849Z,7.8
2022-09-28T19:41:39.228Z,7.9
2022-09-28T19:44:37.875Z,7.9
2022-09-28T19:47:37.897Z,7.9
2022-09-28T19:50:37.907Z,7.9
2022-09-28T19:53:37.998Z,7.9
2022-09-28T19:56:37.937Z,7.9
2022-09-28T19:59:37.958Z,7.9
2022-09-28T20:02:37.991Z,7.9
2022-09-28T20:05:37.980Z,7.9
2022-09-28T20:08:39.190Z,7.9
2022-09-28T20:11:38.043Z,7.9
2022-09-28T20:14:40.242Z,7.9
2022-09-28T20:17:38.012Z,7.9
2022-09-28T20:20:38.024Z,7.9
2022-09-28T20:23:38.040Z,8
2022-09-28T20:26:38.044Z,8
2022-09-28T20:29:38.082Z,8
2022-09-28T20:32:38.073Z,8
2022-09-28T20:35:38.087Z,8
2022-09-28T20:38:38.117Z,8
2022-09-28T20:41:38.116Z,8
2022-09-28T20:44:38.129Z,8
2022-09-28T20:47:38.165Z,7.9
2022-09-28T20:50:38.154Z,7.9
2022-09-28T20:53:38.215Z,7.9
2022-09-28T20:56:38.228Z,7.9
2022-09-28T20:59:38.188Z,7.8
2022-09-28T21:02:38.221Z,7.8
2022-09-28T21:05:38.229Z,7.8
2022-09-28T21:08:38.236Z,7.8
2022-09-28T21:11:38.217Z,7.8
2022-09-28T21:14:38.237Z,7.8
2022-09-28T21:17:38.249Z,7.8
2022-09-28T21:20:38.264Z,7.8
2022-09-28T21:23:38.310Z,7.8
2022-09-28T21:26:38.284Z,7.8
2022-09-28T21:29:38.301Z,7.7
2022-09-28T21:32:38.317Z,7.7
2022-09-28T21:35:38.320Z,7.7
2022-09-28T21:38:38.351Z,7.7
2022-09-28T21:41:38.377Z,7.7
2022-09-28T21:44:38.373Z,7.7
2022-09-28T21:47:38.390Z,7.6
2022-09-28T21:50:38.397Z,7.6
2022-09-28T21:53:38.420Z,7.6
2022-09-28T21:56:38.410Z,7.6
2022-09-28T21:59:38.442Z,7.6
2022-09-28T22:02:38.496Z,7.6
2022-09-28T22:05:38.435Z,7.6
2022-09-28T22:08:38.459Z,7.6
2022-09-28T22:11:38.470Z,7.6
2022-09-28T22:14:38.480Z,7.6
2022-09-28T22:17:38.528Z,7.6
2022-09-28T22:20:38.517Z,7.6
2022-09-28T22:23:38.540Z,7.6
2022-09-28T22:26:38.547Z,7.6
2022-09-28T22:29:38.551Z,7.6
2022-09-28T22:32:38.559Z,7.7
2022-09-28T22:35:38.614Z,7.6
2022-09-28T22:38:38.607Z,7.6
2022-09-28T22:41:38.621Z,7.6
2022-09-28T22:44:38.626Z,7.5
2022-09-28T22:47:38.630Z,7.4
2022-09-28T22:50:38.644Z,7.4
2022-09-28T22:53:38.682Z,7.3
2022-09-28T22:56:38.675Z,7.2
2022-09-28T22:59:38.687Z,7.2
2022-09-28T23:02:38.772Z,7.2
2022-09-28T23:05:38.717Z,7.1
2022-09-28T23:08:38.742Z,7.1
2022-09-28T23:11:38.765Z,7
2022-09-28T23:14:38.752Z,6.9
2022-09-28T23:17:38.771Z,6.9
2022-09-28T23:20:38.783Z,6.8
2022-09-28T23:23:38.804Z,6.8
2022-09-28T23:26:38.814Z,6.8
2022-09-28T23:29:38.851Z,6.7
2022-09-28T23:32:38.842Z,6.7
2022-09-28T23:35:38.849Z,6.7
2022-09-28T23:38:38.874Z,6.6
2022-09-28T23:41:38.864Z,6.5
2022-09-28T23:44:38.881Z,6.3
2022-09-28T23:47:38.978Z,6.2
2022-09-28T23:50:38.906Z,6.1
2022-09-28T23:53:38.935Z,6.1
2022-09-28T23:56:38.940Z,6
2022-09-28T23:59:38.951Z,5.9
